createdAt,value
2022-10-05T00:00:20.852Z,80.05
2022-10-05T00:03:12.074Z,79.78
2022-10-05T00:05:40.238Z,79.99
2022-10-05T00:08:15.651Z,80.21
2022-10-05T00:10:45.391Z,79.79
2022-10-05T00:13:17.668Z,79.88
2022-10-05T00:15:45.752Z,80.06
2022-10-05T00:18:19.358Z,80.06
2022-10-05T00:20:48.744Z,80.26
2022-10-05T00:23:25.712Z,80.20
2022-10-05T00:25:53.395Z,80.30
2022-10-05T00:28:27.337Z,80.38
2022-10-05T00:30:58.836Z,80.37
2022-10-05T00:33:28.032Z,80.13
2022-10-05T00:35:55.892Z,79.94
2022-10-05T00:38:23.564Z,80.05
2022-10-05T00:40:59.922Z,80.03
2022-10-05T00:43:35.163Z,80.18
2022-10-05T00:46:07.848Z,80.46
2022-10-05T00:49:03.465Z,80.25
2022-10-05T00:51:37.156Z,80.15
2022-10-05T00:54:38.815Z,80.44
2022-10-05T00:57:18.370Z,80.51
2022-10-05T00:59:54.132Z,80.32
2022-10-05T01:02:46.852Z,80.14
2022-10-05T01:05:23.811Z,80.47
2022-10-05T01:08:06.753Z,80.37
2022-10-05T01:10:43.960Z,80.42
2022-10-05T01:13:57.776Z,80.45
2022-10-05T01:16:41.680Z,80.73
2022-10-05T01:19:43.527Z,80.64
2022-10-05T01:22:52.074Z,80.51
2022-10-05T01:25:48.264Z,80.49
2022-10-05T01:28:26.398Z,80.23
2022-10-05T01:30:58.392Z,80.33
2022-10-05T01:33:34.092Z,80.62
2022-10-05T01:36:20.164Z,80.81
2022-10-05T01:38:50.295Z,80.42
2022-10-05T01:41:25.588Z,80.54
2022-10-05T01:44:03.419Z,80.99
2022-10-05T01:46:41.978Z,80.59
2022-10-05T01:49:34.276Z,80.87
2022-10-05T01:52:38.581Z,80.78
2022-10-05T01:55:18.399Z,80.64
2022-10-05T01:58:09.141Z,80.75
2022-10-05T02:01:00.487Z,80.91
2022-10-05T02:03:35.742Z,80.61
2022-10-05T02:06:13.290Z,80.73
2022-10-05T02:08:47.786Z,80.66
2022-10-05T02:11:15.763Z,80.83
2022-10-05T02:13:57.353Z,80.84
2022-10-05T02:16:36.960Z,80.90
2022-10-05T02:19:17.220Z,81.12
2022-10-05T02:21:49.206Z,80.74
2022-10-05T02:24:29.774Z,80.82
2022-10-05T02:26:59.062Z,80.90
2022-10-05T02:29:31.138Z,81.09
2022-10-05T02:32:11.289Z,81.09
2022-10-05T02:34:43.476Z,80.77
2022-10-05T02:37:29.225Z,81.02
2022-10-05T02:40:06.348Z,80.93
2022-10-05T02:43:06.414Z,81.26
2022-10-05T02:45:42.812Z,81.26
2022-10-05T02:48:43.063Z,81.10
2022-10-05T02:51:22.505Z,81.04
2022-10-05T02:54:15.721Z,81.35
2022-10-05T02:57:16.854Z,81.19
2022-10-05T02:59:53.142Z,80.83
2022-10-05T03:02:33.639Z,81.18
2022-10-05T03:05:16.542Z,81.28
2022-10-05T03:07:59.238Z,81.39
2022-10-05T03:10:29.213Z,81.57
2022-10-05T03:13:08.421Z,81.08
2022-10-05T03:15:38.858Z,80.92
2022-10-05T03:18:34.511Z,81.49
2022-10-05T03:21:18.051Z,81.34
2022-10-05T03:24:03.926Z,81.39
2022-10-05T03:26:59.296Z,81.55
2022-10-05T03:29:52.022Z,81.26
2022-10-05T03:32:40.330Z,81.50
2022-10-05T03:35:28.266Z,81.53
2022-10-05T03:38:07.941Z,81.33
2022-10-05T03:40:47.382Z,81.66
2022-10-05T03:43:27.005Z,81.73
2022-10-05T03:46:19.244Z,81.32
2022-10-05T03:49:02.770Z,81.46
2022-10-05T03:51:41.089Z,81.32
2022-10-05T03:54:25.373Z,81.42
2022-10-05T03:57:02.093Z,81.36
2022-10-05T03:59:35.690Z,81.66
2022-10-05T04:02:21.529Z,81.80
2022-10-05T04:04:57.239Z,81.75
2022-10-05T04:07:47.007Z,81.54
2022-10-05T04:10:27.978Z,81.87
2022-10-05T04:13:05.268Z,81.69
2022-10-05T04:15:46.107Z,81.84
2022-10-05T04:18:26.405Z,81.64
2022-10-05T04:21:00.111Z,81.68
2022-10-05T04:23:44.586Z,81.75
2022-10-05T04:26:34.782Z,81.99
2022-10-05T04:29:16.487Z,82.13
2022-10-05T04:31:46.901Z,81.83
2022-10-05T04:34:23.738Z,81.93
2022-10-05T04:37:03.094Z,82.02
2022-10-05T04:39:50.693Z,82.26
2022-10-05T04:42:37.707Z,81.91
2022-10-05T04:45:14.055Z,82.11
2022-10-05T04:48:00.485Z,81.92
2022-10-05T04:51:13.390Z,82.13
2022-10-05T04:53:59.179Z,82.20
2022-10-05T04:56:45.831Z,82.11
2022-10-05T04:59:34.645Z,82.40
2022-10-05T05:02:25.558Z,81.82
2022-10-05T05:05:16.449Z,82.05
2022-10-05T05:07:46.902Z,82.41
2022-10-05T05:11:02.591Z,82.18
2022-10-05T05:14:06.782Z,82.22
2022-10-05T05:16:41.418Z,82.17
2022-10-05T05:19:23.778Z,82.31
2022-10-05T05:22:23.762Z,82.29
2022-10-05T05:25:06.682Z,82.27
2022-10-05T05:27:38.517Z,82.36
2022-10-05T05:30:24.089Z,82.56
2022-10-05T05:33:07.502Z,82.30
2022-10-05T05:35:43.898Z,82.50
2022-10-05T05:38:17.291Z,82.39
2022-10-05T05:40:57.543Z,82.60
2022-10-05T05:43:30.840Z,82.53
2022-10-05T05:46:03.410Z,82.49
2022-10-05T05:48:38.643Z,82.57
2022-10-05T05:51:21.594Z,82.28
2022-10-05T05:53:53.842Z,82.38
2022-10-05T05:56:30.566Z,82.62
2022-10-05T05:59:06.506Z,82.58
2022-10-05T06:01:44.524Z,82.74
2022-10-05T06:04:38.642Z,82.52
2022-10-05T06:07:07.353Z,82.46
2022-10-05T06:09:52.090Z,82.29
2022-10-05T06:12:25.758Z,82.62
2022-10-05T06:15:02.055Z,82.60
2022-10-05T06:17:57.303Z,82.81
2022-10-05T06:20:33.337Z,82.70
2022-10-05T06:23:04.906Z,82.44
2022-10-05T06:25:50.373Z,82.61
2022-10-05T06:28:19.812Z,82.67
2022-10-05T06:31:09.011Z,82.75
2022-10-05T06:33:49.156Z,82.90
2022-10-05T06:36:28.030Z,82.27
2022-10-05T06:38:59.231Z,82.77
2022-10-05T06:41:39.614Z,82.71
2022-10-05T06:44:13.183Z,82.61
2022-10-05T06:46:52.530Z,82.85
2022-10-05T06:50:02.286Z,82.53
2022-10-05T06:52:51.867Z,82.65
2022-10-05T06:55:49.411Z,82.63
2022-10-05T06:58:20.975Z,82.61
2022-10-05T07:00:58.514Z,82.49
2022-10-05T07:03:47.926Z,82.14
2022-10-05T07:06:32.982Z,82.24
2022-10-05T07:09:48.528Z,82.32
2022-10-05T07:12:34.979Z,82.08
2022-10-05T07:15:26.398Z,81.97
2022-10-05T07:18:03.259Z,82.08
2022-10-05T07:20:52.577Z,81.81
2022-10-05T07:23:41.660Z,81.78
2022-10-05T07:26:38.403Z,81.71
2022-10-05T07:29:27.879Z,81.82
2022-10-05T07:32:09.216Z,81.60
2022-10-05T07:34:55.516Z,81.23
2022-10-05T07:37:57.895Z,81.26
2022-10-05T07:40:28.535Z,80.84
2022-10-05T07:43:40.246Z,80.30
2022-10-05T07:46:40.729Z,80.16
2022-10-05T07:49:26.739Z,79.95
2022-10-05T07:52:23.836Z,79.98
2022-10-05T07:55:26.758Z,79.66
2022-10-05T07:57:57.448Z,79.68
2022-10-05T08:00:43.282Z,79.60
2022-10-05T08:03:14.927Z,79.42
2022-10-05T08:05:47.013Z,79.26
2022-10-05T08:08:38.148Z,79.13
2022-10-05T08:11:19.289Z,78.33
2022-10-05T08:14:02.721Z,78.81
2022-10-05T08:16:35.328Z,78.53
2022-10-05T08:19:08.702Z,78.14
2022-10-05T08:21:41.508Z,77.90
2022-10-05T08:24:27.691Z,78.12
2022-10-05T08:27:02.188Z,77.68
2022-10-05T08:29:47.458Z,77.96
2022-10-05T08:32:21.131Z,77.38
2022-10-05T08:35:03.051Z,77.14
2022-10-05T08:37:37.372Z,77.33
2022-10-05T08:40:31.976Z,77.20
2022-10-05T08:43:14.503Z,76.78
2022-10-05T08:45:51.150Z,76.60
2022-10-05T08:48:47.482Z,76.22
2022-10-05T08:51:27.182Z,75.88
2022-10-05T08:54:19.156Z,75.88
2022-10-05T08:57:24.447Z,75.48
2022-10-05T09:00:18.822Z,75.28
2022-10-05T09:03:14.375Z,75.59
2022-10-05T09:06:00.623Z,75.07
2022-10-05T09:08:48.834Z,75.24
2022-10-05T09:11:33.263Z,75.26
2022-10-05T09:14:38.017Z,75.01
2022-10-05T09:17:17.619Z,74.76
2022-10-05T09:20:10.011Z,74.75
2022-10-05T09:22:54.870Z,74.34
2022-10-05T09:25:43.925Z,73.94
2022-10-05T09:28:24.521Z,74.19
2022-10-05T09:31:07.380Z,73.70
2022-10-05T09:34:17.664Z,73.37
2022-10-05T09:37:07.240Z,73.11
2022-10-05T09:39:37.972Z,73.05
2022-10-05T09:42:29.801Z,73.02
2022-10-05T09:45:21.041Z,72.54
2022-10-05T09:48:01.168Z,72.18
2022-10-05T09:50:37.970Z,72.16
2022-10-05T09:53:14.474Z,72.23
2022-10-05T09:55:47.848Z,71.47
2022-10-05T09:58:29.506Z,71.49
2022-10-05T10:01:29.236Z,71.19
2022-10-05T10:04:02.403Z,70.86
2022-10-05T10:07:05.185Z,70.46
2022-10-05T10:09:51.102Z,70.66
2022-10-05T10:12:52.648Z,70.26
2022-10-05T10:15:54.769Z,70.14
2022-10-05T10:18:46.013Z,69.48
2022-10-05T10:21:35.936Z,69.28
2022-10-05T10:24:33.778Z,69.47
2022-10-05T10:27:34.391Z,68.35
2022-10-05T10:30:10.981Z,69.01
2022-10-05T10:32:53.272Z,68.29
2022-10-05T10:35:35.906Z,67.63
2022-10-05T10:38:20.032Z,67.37
2022-10-05T10:41:08.579Z,67.05
2022-10-05T10:43:40.127Z,67.28
2022-10-05T10:46:34.049Z,66.97
2022-10-05T10:49:20.284Z,66.93
2022-10-05T10:52:25.028Z,66.71
2022-10-05T10:55:29.885Z,66.64
2022-10-05T10:58:18.955Z,65.97
2022-10-05T11:01:27.343Z,65.69
2022-10-05T11:04:04.261Z,65.34
2022-10-05T11:06:34.888Z,65.00
2022-10-05T11:09:47.668Z,65.19
2022-10-05T11:12:18.072Z,63.95
2022-10-05T11:15:13.793Z,64.21
2022-10-05T11:17:56.725Z,63.97
2022-10-05T11:21:02.716Z,63.58
2022-10-05T11:23:43.838Z,63.38
2022-10-05T11:26:41.327Z,62.91
2022-10-05T11:29:35.000Z,62.96
2022-10-05T11:32:21.602Z,63.23
2022-10-05T11:35:31.158Z,63.53
2022-10-05T11:38:33.922Z,63.20
2022-10-05T11:41:31.484Z,63.10
2022-10-05T11:44:06.155Z,63.29
2022-10-05T11:46:47.549Z,62.94
2022-10-05T11:49:25.006Z,63.07
2022-10-05T11:52:23.016Z,63.34
2022-10-05T11:55:12.062Z,63.41
2022-10-05T11:58:01.853Z,63.48
2022-10-05T12:00:42.254Z,63.36
2022-10-05T12:03:15.714Z,63.37
2022-10-05T12:06:09.549Z,62.97
2022-10-05T12:09:18.676Z,63.03
2022-10-05T12:12:15.818Z,63.34
2022-10-05T12:15:01.422Z,63.56
2022-10-05T12:18:01.330Z,63.59
2022-10-05T12:20:46.810Z,63.87
2022-10-05T12:23:33.629Z,63.89
2022-10-05T12:26:11.303Z,63.76
2022-10-05T12:28:47.910Z,63.72
2022-10-05T12:31:24.882Z,63.38
2022-10-05T12:34:40.982Z,63.58
2022-10-05T12:37:33.580Z,63.53
2022-10-05T12:40:29.208Z,63.70
2022-10-05T12:43:03.544Z,63.75
2022-10-05T12:46:02.833Z,63.73
2022-10-05T12:48:44.406Z,63.70
2022-10-05T12:51:19.543Z,63.53
2022-10-05T12:54:03.177Z,63.55
2022-10-05T12:56:42.725Z,63.61
2022-10-05T12:59:29.113Z,63.06
2022-10-05T13:02:31.103Z,63.67
2022-10-05T13:05:25.352Z,63.52
2022-10-05T13:07:58.933Z,63.40
2022-10-05T13:11:15.203Z,63.09
2022-10-05T13:14:02.525Z,63.17
2022-10-05T13:16:42.680Z,63.05
2022-10-05T13:19:39.545Z,63.32
2022-10-05T13:22:16.074Z,63.43
2022-10-05T13:25:23.295Z,63.63
2022-10-05T13:28:09.803Z,63.35
2022-10-05T13:30:42.000Z,63.52
2022-10-05T13:33:18.176Z,63.51
2022-10-05T13:36:01.607Z,63.73
2022-10-05T13:38:49.484Z,63.75
2022-10-05T13:41:48.851Z,63.71
2022-10-05T13:44:41.284Z,63.73
2022-10-05T13:47:22.563Z,64.02
2022-10-05T13:49:56.881Z,63.83
2022-10-05T13:52:33.668Z,63.85
2022-10-05T13:55:14.037Z,64.09
2022-10-05T13:57:51.811Z,64.14
2022-10-05T14:00:27.005Z,64.37
2022-10-05T14:02:57.935Z,64.52
2022-10-05T14:05:28.114Z,64.51
2022-10-05T14:08:02.522Z,64.76
2022-10-05T14:10:31.540Z,64.88
2022-10-05T14:13:01.223Z,64.90
2022-10-05T14:15:30.632Z,64.93
2022-10-05T14:17:59.017Z,65.14
2022-10-05T14:20:34.389Z,65.17
2022-10-05T14:23:03.336Z,65.29
2022-10-05T14:25:32.089Z,65.39
2022-10-05T14:28:02.044Z,65.52
2022-10-05T14:30:33.795Z,65.46
2022-10-05T14:33:04.408Z,65.61
2022-10-05T14:35:56.584Z,65.71
2022-10-05T14:38:50.562Z,65.87
2022-10-05T14:41:19.527Z,66.07
2022-10-05T14:44:25.001Z,65.88
2022-10-05T14:46:55.990Z,66.08
2022-10-05T14:49:24.394Z,66.11
2022-10-05T14:51:54.546Z,66.21
2022-10-05T14:54:41.383Z,66.28
2022-10-05T14:57:48.404Z,66.47
2022-10-05T15:00:18.741Z,66.56
2022-10-05T15:03:04.626Z,66.57
2022-10-05T15:05:53.632Z,66.65
2022-10-05T15:08:47.246Z,66.64
2022-10-05T15:11:30.596Z,66.85
2022-10-05T15:14:00.030Z,66.78
2022-10-05T15:16:33.244Z,67.17
2022-10-05T15:19:20.917Z,67.04
2022-10-05T15:21:55.118Z,67.20
2022-10-05T15:24:26.739Z,67.27
2022-10-05T15:27:00.899Z,67.45
2022-10-05T15:29:59.679Z,67.39
2022-10-05T15:33:00.406Z,67.56
2022-10-05T15:35:41.947Z,67.84
2022-10-05T15:38:21.470Z,67.76
2022-10-05T15:40:59.160Z,67.72
2022-10-05T15:43:41.733Z,67.79
2022-10-05T15:46:18.006Z,67.89
2022-10-05T15:49:20.194Z,68.06
2022-10-05T15:52:18.794Z,68.16
2022-10-05T15:55:04.538Z,68.28
2022-10-05T15:57:45.619Z,68.44
2022-10-05T16:00:17.712Z,68.52
2022-10-05T16:02:54.827Z,68.42
2022-10-05T16:06:02.391Z,68.54
2022-10-05T16:08:49.215Z,68.65
2022-10-05T16:11:42.670Z,68.86
2022-10-05T16:14:18.306Z,68.97
2022-10-05T16:17:00.251Z,68.99
2022-10-05T16:19:43.713Z,68.88
2022-10-05T16:22:24.067Z,68.96
2022-10-05T16:25:03.427Z,69.05
2022-10-05T16:28:05.255Z,69.10
2022-10-05T16:31:11.245Z,69.33
2022-10-05T16:33:52.917Z,69.40
2022-10-05T16:36:40.465Z,69.15
2022-10-05T16:39:35.115Z,69.40
2022-10-05T16:42:11.971Z,69.53
2022-10-05T16:44:59.866Z,69.63
2022-10-05T16:47:49.621Z,69.58
2022-10-05T16:50:37.970Z,69.67
2022-10-05T16:53:24.160Z,69.79
2022-10-05T16:56:01.935Z,69.96
2022-10-05T16:58:41.623Z,70.12
2022-10-05T17:01:42.522Z,70.22
2022-10-05T17:04:37.055Z,70.28
2022-10-05T17:07:25.046Z,70.28
2022-10-05T17:10:13.201Z,70.52
2022-10-05T17:13:08.024Z,70.45
2022-10-05T17:16:06.631Z,70.62
2022-10-05T17:18:55.731Z,70.64
2022-10-05T17:21:45.741Z,70.85
2022-10-05T17:24:19.633Z,70.66
2022-10-05T17:26:56.311Z,70.90
2022-10-05T17:29:42.737Z,70.83
2022-10-05T17:32:12.272Z,71.07
2022-10-05T17:35:02.438Z,71.03
2022-10-05T17:37:31.952Z,70.94
2022-10-05T17:39:59.606Z,70.96
2022-10-05T17:42:29.935Z,71.01
2022-10-05T17:45:20.404Z,71.20
2022-10-05T17:48:10.179Z,71.26
2022-10-05T17:51:01.077Z,71.25
2022-10-05T17:54:02.560Z,71.26
2022-10-05T17:56:33.897Z,71.31
2022-10-05T17:59:04.855Z,71.35
2022-10-05T18:01:33.910Z,71.36
2022-10-05T18:04:25.448Z,71.38
2022-10-05T18:07:05.906Z,71.22
2022-10-05T18:09:38.400Z,71.36
2022-10-05T18:12:10.011Z,71.14
2022-10-05T18:14:58.103Z,71.19
2022-10-05T18:18:34.514Z,71.23
2022-10-05T18:21:15.084Z,71.01
2022-10-05T18:23:52.982Z,71.10
2022-10-05T18:26:30.285Z,70.80
2022-10-05T18:30:06.667Z,71.07
2022-10-05T18:32:45.392Z,70.80
2022-10-05T18:35:18.832Z,70.78
2022-10-05T18:37:55.211Z,71.01
2022-10-05T18:40:54.179Z,71.04
2022-10-05T18:43:47.712Z,70.95
2022-10-05T19:00:11.330Z,70.90
2022-10-05T19:03:51.987Z,71.11
2022-10-05T19:07:29.369Z,71.25
2022-10-05T19:10:58.125Z,71.20
2022-10-05T19:14:37.604Z,71.18
2022-10-05T19:17:45.217Z,71.30
2022-10-05T19:21:22.798Z,71.08
2022-10-05T19:24:49.965Z,71.17
2022-10-05T19:28:27.496Z,71.30
2022-10-05T19:32:08.440Z,71.24
2022-10-05T19:35:46.654Z,71.22
2022-10-05T19:39:19.609Z,71.44
2022-10-05T19:42:51.477Z,71.25
2022-10-05T19:46:25.569Z,71.33
2022-10-05T19:49:55.504Z,71.23
2022-10-05T19:53:32.354Z,71.16
2022-10-05T19:57:22.289Z,71.26
2022-10-05T20:00:51.125Z,71.13
2022-10-05T20:04:22.466Z,71.20
2022-10-05T20:07:53.575Z,71.21
2022-10-05T20:11:25.099Z,71.28
2022-10-05T20:14:58.495Z,71.19
2022-10-05T20:18:26.670Z,71.25
2022-10-05T20:21:35.702Z,71.39
2022-10-05T20:25:13.495Z,71.34
2022-10-05T20:28:45.783Z,71.26
2022-10-05T20:32:13.442Z,71.42
2022-10-05T20:35:42.385Z,71.36
2022-10-05T20:39:15.556Z,71.46
2022-10-05T20:57:03.885Z,71.60
2022-10-05T21:00:34.103Z,71.48
2022-10-05T21:04:02.914Z,71.73
2022-10-05T21:07:31.471Z,71.81
2022-10-05T21:11:00.186Z,71.74
2022-10-05T21:14:29.129Z,71.71
2022-10-05T21:17:57.851Z,71.88
2022-10-05T21:38:38.147Z,72.10
2022-10-05T21:42:11.512Z,72.23
2022-10-05T21:45:40.225Z,72.25
2022-10-05T21:49:09.090Z,72.19
2022-10-05T21:52:36.672Z,72.44
2022-10-05T21:56:05.804Z,72.37
2022-10-05T21:59:34.453Z,72.54
2022-10-05T22:03:10.658Z,72.67
2022-10-05T22:06:39.346Z,72.69
2022-10-05T22:10:08.043Z,72.64
2022-10-05T22:13:39.810Z,72.94
2022-10-05T22:17:08.473Z,72.87
2022-10-05T22:20:37.479Z,73.08
2022-10-05T22:24:05.270Z,73.05
2022-10-05T22:27:35.183Z,73.01
2022-10-05T22:31:05.101Z,73.33
2022-10-05T22:34:35.396Z,73.25
2022-10-05T23:22:49.048Z,74.39
